Phoenix, Arizona
Traffic Map
Current Weather Conditions
Phoenix, Arizona
Few Clouds
Few Clouds
60°
Feels Like: 60°
Wind Chill: 60° Ceiling: Unl
Heat Index: 60° Visibility: 10mi
Dew Point: 42° Wind: 0mph
Humidity: 51% Direction: ° ()
Pressure: 30.14in Gusts: 0mph
Raw Report DataKPHX 181851Z 00000KT 10SM FEW050 16/06 A3014 RMK AO2 SLP200 T01560056
Traffic Incident Summary
Active as of:
Severity:
Category:
InformationThere was an issue retrieving the traffic information for this location. Please try a different location or try again shortly.
Advertisements
Track Severe Weather on mobile